sensor_id;sensor_type;location;lat;lon;timestamp;P1;durP1;ratioP1;P2;durP2;ratioP2
11414;SDS011;5763;42.714;23.244;2023-04-24T00:01:12;6.80;;;5.65;;
11414;SDS011;5763;42.714;23.244;2023-04-24T00:03:41;6.65;;;5.70;;
11414;SDS011;5763;42.714;23.244;2023-04-24T00:06:08;6.43;;;5.20;;
11414;SDS011;5763;42.714;23.244;2023-04-24T00:08:35;8.30;;;5.65;;
11414;SDS011;5763;42.714;23.244;2023-04-24T00:11:02;7.25;;;5.38;;
11414;SDS011;5763;42.714;23.244;2023-04-24T00:13:29;7.38;;;5.32;;
11414;SDS011;5763;42.714;23.244;2023-04-24T00:15:56;5.70;;;5.10;;
11414;SDS011;5763;42.714;23.244;2023-04-24T00:18:22;8.77;;;5.45;;
11414;SDS011;5763;42.714;23.244;2023-04-24T00:20:51;7.10;;;5.75;;
11414;SDS011;5763;42.714;23.244;2023-04-24T00:23:17;6.32;;;5.18;;
11414;SDS011;5763;42.714;23.244;2023-04-24T00:25:44;5.90;;;5.13;;
11414;SDS011;5763;42.714;23.244;2023-04-24T00:28:11;7.07;;;5.07;;
11414;SDS011;5763;42.714;23.244;2023-04-24T00:30:37;6.43;;;5.32;;
11414;SDS011;5763;42.714;23.244;2023-04-24T00:33:04;7.05;;;5.28;;
11414;SDS011;5763;42.714;23.244;2023-04-24T00:35:31;6.80;;;5.45;;
11414;SDS011;5763;42.714;23.244;2023-04-24T00:37:59;6.95;;;5.22;;
11414;SDS011;5763;42.714;23.244;2023-04-24T00:40:26;6.93;;;5.80;;
11414;SDS011;5763;42.714;23.244;2023-04-24T00:42:54;7.25;;;5.88;;
11414;SDS011;5763;42.714;23.244;2023-04-24T00:45:21;7.40;;;6.10;;
11414;SDS011;5763;42.714;23.244;2023-04-24T00:47:48;7.85;;;6.43;;
11414;SDS011;5763;42.714;23.244;2023-04-24T00:50:15;7.50;;;5.75;;
11414;SDS011;5763;42.714;23.244;2023-04-24T00:52:42;7.90;;;6.10;;
11414;SDS011;5763;42.714;23.244;2023-04-24T00:55:10;9.15;;;5.95;;
11414;SDS011;5763;42.714;23.244;2023-04-24T00:57:37;7.93;;;5.97;;
11414;SDS011;5763;42.714;23.244;2023-04-24T01:00:05;8.40;;;6.40;;
11414;SDS011;5763;42.714;23.244;2023-04-24T01:02:36;10.85;;;6.80;;
11414;SDS011;5763;42.714;23.244;2023-04-24T01:05:05;7.32;;;6.22;;
11414;SDS011;5763;42.714;23.244;2023-04-24T01:07:33;9.10;;;6.80;;
11414;SDS011;5763;42.714;23.244;2023-04-24T01:10:01;9.50;;;7.03;;
11414;SDS011;5763;42.714;23.244;2023-04-24T01:12:29;8.25;;;6.75;;
11414;SDS011;5763;42.714;23.244;2023-04-24T01:14:56;7.18;;;6.43;;
11414;SDS011;5763;42.714;23.244;2023-04-24T01:17:23;7.63;;;6.50;;
11414;SDS011;5763;42.714;23.244;2023-04-24T01:19:50;7.93;;;6.93;;
11414;SDS011;5763;42.714;23.244;2023-04-24T01:22:20;8.25;;;7.25;;
11414;SDS011;5763;42.714;23.244;2023-04-24T01:24:46;8.05;;;7.15;;
11414;SDS011;5763;42.714;23.244;2023-04-24T01:27:14;9.32;;;7.50;;
11414;SDS011;5763;42.714;23.244;2023-04-24T01:29:41;6.93;;;6.25;;
11414;SDS011;5763;42.714;23.244;2023-04-24T01:32:07;8.32;;;7.18;;
11414;SDS011;5763;42.714;23.244;2023-04-24T01:34:34;8.02;;;6.53;;
11414;SDS011;5763;42.714;23.244;2023-04-24T01:37:01;7.90;;;6.20;;
11414;SDS011;5763;42.714;23.244;2023-04-24T01:39:29;7.97;;;5.82;;
11414;SDS011;5763;42.714;23.244;2023-04-24T01:41:56;9.98;;;5.90;;
11414;SDS011;5763;42.714;23.244;2023-04-24T01:44:23;7.15;;;5.57;;
11414;SDS011;5763;42.714;23.244;2023-04-24T01:46:49;6.43;;;5.30;;
11414;SDS011;5763;42.714;23.244;2023-04-24T01:49:16;6.97;;;5.40;;
11414;SDS011;5763;42.714;23.244;2023-04-24T01:51:43;6.15;;;4.88;;
11414;SDS011;5763;42.714;23.244;2023-04-24T01:54:10;6.80;;;4.93;;
11414;SDS011;5763;42.714;23.244;2023-04-24T01:56:39;8.32;;;5.07;;
11414;SDS011;5763;42.714;23.244;2023-04-24T01:59:07;5.32;;;4.60;;
11414;SDS011;5763;42.714;23.244;2023-04-24T02:01:36;6.95;;;5.03;;
11414;SDS011;5763;42.714;23.244;2023-04-24T02:04:03;6.43;;;4.93;;
11414;SDS011;5763;42.714;23.244;2023-04-24T02:06:31;6.95;;;4.90;;
11414;SDS011;5763;42.714;23.244;2023-04-24T02:08:58;6.05;;;5.00;;
11414;SDS011;5763;42.714;23.244;2023-04-24T02:11:24;7.38;;;5.15;;
11414;SDS011;5763;42.714;23.244;2023-04-24T02:13:53;5.25;;;4.75;;
11414;SDS011;5763;42.714;23.244;2023-04-24T02:16:20;6.88;;;4.88;;
11414;SDS011;5763;42.714;23.244;2023-04-24T02:18:47;9.15;;;7.07;;
11414;SDS011;5763;42.714;23.244;2023-04-24T02:21:14;8.85;;;7.00;;
11414;SDS011;5763;42.714;23.244;2023-04-24T02:23:40;6.93;;;6.18;;
11414;SDS011;5763;42.714;23.244;2023-04-24T02:26:07;7.28;;;6.57;;
11414;SDS011;5763;42.714;23.244;2023-04-24T02:28:34;7.47;;;6.07;;
11414;SDS011;5763;42.714;23.244;2023-04-24T02:31:02;9.05;;;6.15;;
11414;SDS011;5763;42.714;23.244;2023-04-24T02:33:30;10.38;;;6.22;;
11414;SDS011;5763;42.714;23.244;2023-04-24T02:35:57;9.35;;;6.18;;
11414;SDS011;5763;42.714;23.244;2023-04-24T02:38:23;7.38;;;6.45;;
11414;SDS011;5763;42.714;23.244;2023-04-24T02:40:50;8.95;;;6.38;;
11414;SDS011;5763;42.714;23.244;2023-04-24T02:43:17;8.15;;;5.78;;
11414;SDS011;5763;42.714;23.244;2023-04-24T02:45:44;8.23;;;7.00;;
11414;SDS011;5763;42.714;23.244;2023-04-24T02:48:12;7.10;;;6.40;;
11414;SDS011;5763;42.714;23.244;2023-04-24T02:50:39;10.10;;;6.70;;
11414;SDS011;5763;42.714;23.244;2023-04-24T02:53:05;7.00;;;6.30;;
11414;SDS011;5763;42.714;23.244;2023-04-24T02:55:32;7.38;;;6.55;;
11414;SDS011;5763;42.714;23.244;2023-04-24T02:57:59;7.10;;;6.43;;
11414;SDS011;5763;42.714;23.244;2023-04-24T03:00:26;10.75;;;7.00;;
11414;SDS011;5763;42.714;23.244;2023-04-24T03:02:52;7.13;;;6.13;;
11414;SDS011;5763;42.714;23.244;2023-04-24T03:05:21;6.43;;;5.80;;
11414;SDS011;5763;42.714;23.244;2023-04-24T03:07:47;11.27;;;6.10;;
11414;SDS011;5763;42.714;23.244;2023-04-24T03:10:14;7.70;;;6.00;;
11414;SDS011;5763;42.714;23.244;2023-04-24T03:12:41;9.38;;;6.07;;
11414;SDS011;5763;42.714;23.244;2023-04-24T03:15:08;10.93;;;6.00;;
11414;SDS011;5763;42.714;23.244;2023-04-24T03:17:35;6.47;;;5.68;;
11414;SDS011;5763;42.714;23.244;2023-04-24T03:20:03;9.02;;;5.85;;
11414;SDS011;5763;42.714;23.244;2023-04-24T03:22:32;6.97;;;5.60;;
11414;SDS011;5763;42.714;23.244;2023-04-24T03:24:59;8.77;;;6.18;;
11414;SDS011;5763;42.714;23.244;2023-04-24T03:27:26;8.13;;;6.07;;
11414;SDS011;5763;42.714;23.244;2023-04-24T03:29:53;7.53;;;5.70;;
11414;SDS011;5763;42.714;23.244;2023-04-24T03:32:20;8.27;;;5.50;;
11414;SDS011;5763;42.714;23.244;2023-04-24T03:34:47;8.40;;;5.60;;
11414;SDS011;5763;42.714;23.244;2023-04-24T03:37:15;6.78;;;5.80;;
11414;SDS011;5763;42.714;23.244;2023-04-24T03:39:43;6.65;;;5.95;;
11414;SDS011;5763;42.714;23.244;2023-04-24T03:42:09;7.20;;;5.72;;
11414;SDS011;5763;42.714;23.244;2023-04-24T03:44:36;11.07;;;6.07;;
11414;SDS011;5763;42.714;23.244;2023-04-24T03:47:03;7.00;;;6.30;;
11414;SDS011;5763;42.714;23.244;2023-04-24T03:49:30;8.45;;;6.32;;
11414;SDS011;5763;42.714;23.244;2023-04-24T03:51:56;8.50;;;6.38;;
11414;SDS011;5763;42.714;23.244;2023-04-24T03:54:23;7.43;;;6.45;;
11414;SDS011;5763;42.714;23.244;2023-04-24T03:56:51;7.72;;;6.65;;
11414;SDS011;5763;42.714;23.244;2023-04-24T03:59:18;11.50;;;6.05;;
11414;SDS011;5763;42.714;23.244;2023-04-24T04:01:45;8.70;;;5.95;;
11414;SDS011;5763;42.714;23.244;2023-04-24T04:04:12;7.95;;;6.13;;
11414;SDS011;5763;42.714;23.244;2023-04-24T04:06:39;7.70;;;5.78;;
11414;SDS011;5763;42.714;23.244;2023-04-24T04:09:06;8.93;;;6.20;;
11414;SDS011;5763;42.714;23.244;2023-04-24T04:11:33;8.50;;;6.32;;
11414;SDS011;5763;42.714;23.244;2023-04-24T04:14:02;6.90;;;5.93;;
11414;SDS011;5763;42.714;23.244;2023-04-24T04:16:29;9.15;;;6.20;;
11414;SDS011;5763;42.714;23.244;2023-04-24T04:18:56;6.88;;;5.68;;
11414;SDS011;5763;42.714;23.244;2023-04-24T04:21:22;10.88;;;6.72;;
11414;SDS011;5763;42.714;23.244;2023-04-24T04:23:49;11.52;;;6.53;;
11414;SDS011;5763;42.714;23.244;2023-04-24T04:26:16;7.53;;;6.47;;
11414;SDS011;5763;42.714;23.244;2023-04-24T04:28:44;14.07;;;6.90;;
11414;SDS011;5763;42.714;23.244;2023-04-24T04:31:14;7.65;;;6.32;;
11414;SDS011;5763;42.714;23.244;2023-04-24T04:33:40;12.25;;;7.57;;
11414;SDS011;5763;42.714;23.244;2023-04-24T04:36:07;11.15;;;7.25;;
11414;SDS011;5763;42.714;23.244;2023-04-24T04:38:34;9.00;;;6.63;;
11414;SDS011;5763;42.714;23.244;2023-04-24T04:41:02;10.20;;;7.15;;
11414;SDS011;5763;42.714;23.244;2023-04-24T04:43:29;9.60;;;6.43;;
11414;SDS011;5763;42.714;23.244;2023-04-24T04:45:56;11.73;;;6.57;;
11414;SDS011;5763;42.714;23.244;2023-04-24T04:48:27;8.73;;;6.03;;
11414;SDS011;5763;42.714;23.244;2023-04-24T04:50:53;7.40;;;6.05;;
11414;SDS011;5763;42.714;23.244;2023-04-24T04:53:20;8.20;;;5.80;;
11414;SDS011;5763;42.714;23.244;2023-04-24T04:55:47;10.38;;;6.35;;
11414;SDS011;5763;42.714;23.244;2023-04-24T04:58:14;6.47;;;5.32;;
11414;SDS011;5763;42.714;23.244;2023-04-24T05:00:41;7.20;;;5.85;;
11414;SDS011;5763;42.714;23.244;2023-04-24T05:03:07;7.50;;;5.85;;
11414;SDS011;5763;42.714;23.244;2023-04-24T05:05:36;11.80;;;5.88;;
11414;SDS011;5763;42.714;23.244;2023-04-24T05:08:05;11.50;;;6.25;;
11414;SDS011;5763;42.714;23.244;2023-04-24T05:10:33;11.25;;;6.63;;
11414;SDS011;5763;42.714;23.244;2023-04-24T05:12:59;12.50;;;6.82;;
11414;SDS011;5763;42.714;23.244;2023-04-24T05:15:27;8.27;;;6.30;;
11414;SDS011;5763;42.714;23.244;2023-04-24T05:17:53;7.80;;;5.35;;
11414;SDS011;5763;42.714;23.244;2023-04-24T05:20:20;8.52;;;5.05;;
11414;SDS011;5763;42.714;23.244;2023-04-24T05:22:49;6.63;;;5.13;;
11414;SDS011;5763;42.714;23.244;2023-04-24T05:25:15;8.35;;;5.30;;
11414;SDS011;5763;42.714;23.244;2023-04-24T05:27:42;6.80;;;5.50;;
11414;SDS011;5763;42.714;23.244;2023-04-24T05:30:09;9.20;;;5.40;;
11414;SDS011;5763;42.714;23.244;2023-04-24T05:32:37;5.90;;;5.32;;
11414;SDS011;5763;42.714;23.244;2023-04-24T05:35:04;8.73;;;5.72;;
11414;SDS011;5763;42.714;23.244;2023-04-24T05:37:31;8.05;;;5.50;;
11414;SDS011;5763;42.714;23.244;2023-04-24T05:39:59;11.55;;;5.85;;
11414;SDS011;5763;42.714;23.244;2023-04-24T05:42:26;9.18;;;6.07;;
11414;SDS011;5763;42.714;23.244;2023-04-24T05:44:52;10.15;;;6.40;;
11414;SDS011;5763;42.714;23.244;2023-04-24T05:47:19;10.38;;;5.75;;
11414;SDS011;5763;42.714;23.244;2023-04-24T05:49:47;9.50;;;5.97;;
11414;SDS011;5763;42.714;23.244;2023-04-24T05:52:13;8.48;;;5.82;;
11414;SDS011;5763;42.714;23.244;2023-04-24T05:54:40;6.97;;;6.18;;
11414;SDS011;5763;42.714;23.244;2023-04-24T05:57:08;9.35;;;5.95;;
11414;SDS011;5763;42.714;23.244;2023-04-24T05:59:36;11.75;;;5.90;;
11414;SDS011;5763;42.714;23.244;2023-04-24T06:02:03;10.23;;;6.30;;
11414;SDS011;5763;42.714;23.244;2023-04-24T06:04:30;8.43;;;5.10;;
11414;SDS011;5763;42.714;23.244;2023-04-24T06:06:57;9.05;;;5.82;;
11414;SDS011;5763;42.714;23.244;2023-04-24T06:09:25;7.28;;;5.50;;
11414;SDS011;5763;42.714;23.244;2023-04-24T06:11:52;6.68;;;5.30;;
11414;SDS011;5763;42.714;23.244;2023-04-24T06:14:21;6.88;;;5.45;;
11414;SDS011;5763;42.714;23.244;2023-04-24T06:16:47;7.55;;;5.53;;
11414;SDS011;5763;42.714;23.244;2023-04-24T06:19:14;10.85;;;5.85;;
11414;SDS011;5763;42.714;23.244;2023-04-24T06:21:41;7.40;;;5.85;;
11414;SDS011;5763;42.714;23.244;2023-04-24T06:24:07;9.48;;;5.80;;
11414;SDS011;5763;42.714;23.244;2023-04-24T06:26:34;6.85;;;5.75;;
11414;SDS011;5763;42.714;23.244;2023-04-24T06:29:01;7.65;;;6.00;;
11414;SDS011;5763;42.714;23.244;2023-04-24T06:31:30;8.20;;;5.75;;
11414;SDS011;5763;42.714;23.244;2023-04-24T06:34:01;10.35;;;5.82;;
11414;SDS011;5763;42.714;23.244;2023-04-24T06:36:28;7.55;;;5.70;;
11414;SDS011;5763;42.714;23.244;2023-04-24T06:38:56;7.30;;;5.72;;
11414;SDS011;5763;42.714;23.244;2023-04-24T06:41:22;12.93;;;6.20;;
11414;SDS011;5763;42.714;23.244;2023-04-24T06:43:50;7.95;;;6.57;;
11414;SDS011;5763;42.714;23.244;2023-04-24T06:46:16;9.60;;;6.22;;
11414;SDS011;5763;42.714;23.244;2023-04-24T06:48:44;8.25;;;6.97;;
11414;SDS011;5763;42.714;23.244;2023-04-24T06:51:11;7.80;;;5.97;;
11414;SDS011;5763;42.714;23.244;2023-04-24T06:53:38;12.27;;;7.10;;
11414;SDS011;5763;42.714;23.244;2023-04-24T06:56:05;9.88;;;6.75;;
11414;SDS011;5763;42.714;23.244;2023-04-24T06:58:32;12.85;;;7.00;;
11414;SDS011;5763;42.714;23.244;2023-04-24T07:00:59;12.98;;;7.55;;
11414;SDS011;5763;42.714;23.244;2023-04-24T07:03:25;7.80;;;7.00;;
11414;SDS011;5763;42.714;23.244;2023-04-24T07:05:54;9.32;;;7.50;;
11414;SDS011;5763;42.714;23.244;2023-04-24T07:08:21;12.63;;;7.30;;
11414;SDS011;5763;42.714;23.244;2023-04-24T07:10:48;10.77;;;8.95;;
11414;SDS011;5763;42.714;23.244;2023-04-24T07:13:15;11.10;;;7.57;;
11414;SDS011;5763;42.714;23.244;2023-04-24T07:15:42;10.82;;;7.65;;
11414;SDS011;5763;42.714;23.244;2023-04-24T07:18:09;9.88;;;7.65;;
11414;SDS011;5763;42.714;23.244;2023-04-24T07:20:36;7.88;;;6.80;;
11414;SDS011;5763;42.714;23.244;2023-04-24T07:23:04;10.00;;;6.82;;
11414;SDS011;5763;42.714;23.244;2023-04-24T07:25:31;7.32;;;6.63;;
11414;SDS011;5763;42.714;23.244;2023-04-24T07:27:58;9.45;;;7.13;;
11414;SDS011;5763;42.714;23.244;2023-04-24T07:30:24;8.60;;;7.18;;
11414;SDS011;5763;42.714;23.244;2023-04-24T07:32:53;9.35;;;7.15;;
11414;SDS011;5763;42.714;23.244;2023-04-24T07:35:21;10.93;;;7.43;;
11414;SDS011;5763;42.714;23.244;2023-04-24T07:37:47;13.45;;;9.27;;
11414;SDS011;5763;42.714;23.244;2023-04-24T07:40:15;8.98;;;6.97;;
11414;SDS011;5763;42.714;23.244;2023-04-24T07:42:42;9.02;;;6.03;;
11414;SDS011;5763;42.714;23.244;2023-04-24T07:45:10;9.85;;;6.10;;
11414;SDS011;5763;42.714;23.244;2023-04-24T07:47:36;8.30;;;6.95;;
11414;SDS011;5763;42.714;23.244;2023-04-24T07:50:05;9.82;;;6.35;;
11414;SDS011;5763;42.714;23.244;2023-04-24T07:52:32;11.23;;;6.60;;
11414;SDS011;5763;42.714;23.244;2023-04-24T07:54:59;7.50;;;6.68;;
11414;SDS011;5763;42.714;23.244;2023-04-24T07:57:28;8.55;;;6.35;;
11414;SDS011;5763;42.714;23.244;2023-04-24T07:59:55;7.30;;;6.57;;
11414;SDS011;5763;42.714;23.244;2023-04-24T08:02:22;7.63;;;6.88;;
11414;SDS011;5763;42.714;23.244;2023-04-24T08:04:51;7.72;;;6.97;;
11414;SDS011;5763;42.714;23.244;2023-04-24T08:07:19;8.55;;;7.20;;
11414;SDS011;5763;42.714;23.244;2023-04-24T08:09:46;8.25;;;6.82;;
11414;SDS011;5763;42.714;23.244;2023-04-24T08:12:12;8.43;;;6.93;;
11414;SDS011;5763;42.714;23.244;2023-04-24T08:14:41;9.52;;;6.35;;
11414;SDS011;5763;42.714;23.244;2023-04-24T08:17:07;8.85;;;6.55;;
11414;SDS011;5763;42.714;23.244;2023-04-24T08:19:34;8.50;;;6.35;;
11414;SDS011;5763;42.714;23.244;2023-04-24T08:22:01;7.90;;;6.10;;
11414;SDS011;5763;42.714;23.244;2023-04-24T08:24:29;10.35;;;6.38;;
11414;SDS011;5763;42.714;23.244;2023-04-24T08:26:56;8.93;;;6.13;;
11414;SDS011;5763;42.714;23.244;2023-04-24T08:29:23;10.98;;;6.32;;
11414;SDS011;5763;42.714;23.244;2023-04-24T08:31:53;8.18;;;5.95;;
11414;SDS011;5763;42.714;23.244;2023-04-24T08:34:20;8.32;;;6.15;;
11414;SDS011;5763;42.714;23.244;2023-04-24T08:36:47;7.70;;;6.50;;
11414;SDS011;5763;42.714;23.244;2023-04-24T08:39:14;8.52;;;6.40;;
11414;SDS011;5763;42.714;23.244;2023-04-24T08:41:43;10.07;;;6.13;;
11414;SDS011;5763;42.714;23.244;2023-04-24T08:44:11;7.65;;;5.47;;
11414;SDS011;5763;42.714;23.244;2023-04-24T08:46:40;8.75;;;6.05;;
11414;SDS011;5763;42.714;23.244;2023-04-24T08:49:12;7.28;;;6.10;;
11414;SDS011;5763;42.714;23.244;2023-04-24T08:51:41;8.82;;;5.97;;
11414;SDS011;5763;42.714;23.244;2023-04-24T08:54:08;7.38;;;5.88;;
11414;SDS011;5763;42.714;23.244;2023-04-24T08:56:36;7.43;;;5.50;;
11414;SDS011;5763;42.714;23.244;2023-04-24T08:59:04;10.68;;;6.07;;
11414;SDS011;5763;42.714;23.244;2023-04-24T09:01:32;6.68;;;5.75;;
11414;SDS011;5763;42.714;23.244;2023-04-24T09:04:00;7.53;;;5.60;;
11414;SDS011;5763;42.714;23.244;2023-04-24T09:06:31;6.78;;;5.82;;
11414;SDS011;5763;42.714;23.244;2023-04-24T09:08:59;6.65;;;5.65;;
11414;SDS011;5763;42.714;23.244;2023-04-24T09:11:27;6.63;;;5.60;;
11414;SDS011;5763;42.714;23.244;2023-04-24T09:13:54;5.88;;;5.35;;
11414;SDS011;5763;42.714;23.244;2023-04-24T09:16:21;7.43;;;5.63;;
11414;SDS011;5763;42.714;23.244;2023-04-24T09:18:49;7.90;;;5.78;;
11414;SDS011;5763;42.714;23.244;2023-04-24T09:21:16;6.68;;;5.70;;
11414;SDS011;5763;42.714;23.244;2023-04-24T09:23:44;7.00;;;5.57;;
11414;SDS011;5763;42.714;23.244;2023-04-24T09:26:11;7.10;;;5.18;;
11414;SDS011;5763;42.714;23.244;2023-04-24T09:28:39;9.20;;;5.20;;
11414;SDS011;5763;42.714;23.244;2023-04-24T09:31:07;6.93;;;5.45;;
11414;SDS011;5763;42.714;23.244;2023-04-24T09:33:35;7.22;;;5.00;;
11414;SDS011;5763;42.714;23.244;2023-04-24T09:36:03;5.88;;;5.28;;
11414;SDS011;5763;42.714;23.244;2023-04-24T09:38:31;6.63;;;5.38;;
11414;SDS011;5763;42.714;23.244;2023-04-24T09:41:01;6.85;;;5.35;;
11414;SDS011;5763;42.714;23.244;2023-04-24T09:43:29;7.22;;;5.55;;
11414;SDS011;5763;42.714;23.244;2023-04-24T09:45:56;7.35;;;5.63;;
11414;SDS011;5763;42.714;23.244;2023-04-24T09:48:30;7.63;;;5.63;;
11414;SDS011;5763;42.714;23.244;2023-04-24T09:50:59;7.28;;;5.72;;
11414;SDS011;5763;42.714;23.244;2023-04-24T09:53:27;6.38;;;5.75;;
11414;SDS011;5763;42.714;23.244;2023-04-24T09:55:54;6.22;;;5.03;;
11414;SDS011;5763;42.714;23.244;2023-04-24T09:58:25;7.63;;;5.95;;
11414;SDS011;5763;42.714;23.244;2023-04-24T10:00:55;7.95;;;5.65;;
11414;SDS011;5763;42.714;23.244;2023-04-24T10:03:23;6.85;;;5.00;;
11414;SDS011;5763;42.714;23.244;2023-04-24T10:05:52;7.28;;;5.30;;
11414;SDS011;5763;42.714;23.244;2023-04-24T10:08:20;7.05;;;4.78;;
11414;SDS011;5763;42.714;23.244;2023-04-24T10:10:47;7.05;;;5.10;;
11414;SDS011;5763;42.714;23.244;2023-04-24T10:13:14;8.57;;;5.13;;
11414;SDS011;5763;42.714;23.244;2023-04-24T10:15:43;7.95;;;5.03;;
11414;SDS011;5763;42.714;23.244;2023-04-24T10:18:10;9.63;;;6.13;;
11414;SDS011;5763;42.714;23.244;2023-04-24T10:20:38;5.25;;;4.75;;
11414;SDS011;5763;42.714;23.244;2023-04-24T10:23:06;9.10;;;4.57;;
11414;SDS011;5763;42.714;23.244;2023-04-24T10:25:33;7.18;;;4.65;;
11414;SDS011;5763;42.714;23.244;2023-04-24T10:28:01;6.05;;;4.50;;
11414;SDS011;5763;42.714;23.244;2023-04-24T10:30:29;6.10;;;4.30;;
11414;SDS011;5763;42.714;23.244;2023-04-24T10:33:01;6.60;;;4.25;;
11414;SDS011;5763;42.714;23.244;2023-04-24T10:35:30;5.15;;;4.13;;
11414;SDS011;5763;42.714;23.244;2023-04-24T10:37:58;5.53;;;4.22;;
11414;SDS011;5763;42.714;23.244;2023-04-24T10:40:30;8.63;;;4.50;;
11414;SDS011;5763;42.714;23.244;2023-04-24T10:42:59;7.82;;;4.70;;
11414;SDS011;5763;42.714;23.244;2023-04-24T10:45:28;10.68;;;4.57;;
11414;SDS011;5763;42.714;23.244;2023-04-24T10:47:58;5.40;;;4.45;;
11414;SDS011;5763;42.714;23.244;2023-04-24T10:50:28;5.05;;;4.50;;
11414;SDS011;5763;42.714;23.244;2023-04-24T10:53:04;6.50;;;4.20;;
11414;SDS011;5763;42.714;23.244;2023-04-24T10:55:40;6.28;;;4.10;;
11414;SDS011;5763;42.714;23.244;2023-04-24T10:58:08;6.00;;;4.50;;
11414;SDS011;5763;42.714;23.244;2023-04-24T11:00:36;6.70;;;4.75;;
11414;SDS011;5763;42.714;23.244;2023-04-24T11:03:04;6.38;;;4.00;;
11414;SDS011;5763;42.714;23.244;2023-04-24T11:05:52;5.13;;;3.70;;
11414;SDS011;5763;42.714;23.244;2023-04-24T11:08:22;4.18;;;3.85;;
11414;SDS011;5763;42.714;23.244;2023-04-24T11:11:01;5.30;;;3.90;;
11414;SDS011;5763;42.714;23.244;2023-04-24T11:16:32;10.00;;;4.22;;
11414;SDS011;5763;42.714;23.244;2023-04-24T11:19:00;7.25;;;4.00;;
11414;SDS011;5763;42.714;23.244;2023-04-24T11:21:32;5.18;;;3.92;;
11414;SDS011;5763;42.714;23.244;2023-04-24T11:24:22;4.30;;;3.90;;
11414;SDS011;5763;42.714;23.244;2023-04-24T11:26:50;4.43;;;4.05;;
11414;SDS011;5763;42.714;23.244;2023-04-24T11:29:18;4.72;;;4.07;;
11414;SDS011;5763;42.714;23.244;2023-04-24T11:31:46;4.65;;;4.15;;
11414;SDS011;5763;42.714;23.244;2023-04-24T11:34:15;5.22;;;3.90;;
11414;SDS011;5763;42.714;23.244;2023-04-24T11:36:44;3.72;;;3.30;;
11414;SDS011;5763;42.714;23.244;2023-04-24T11:39:11;4.97;;;3.45;;
11414;SDS011;5763;42.714;23.244;2023-04-24T11:41:38;4.72;;;3.13;;
11414;SDS011;5763;42.714;23.244;2023-04-24T11:44:06;3.30;;;2.97;;
11414;SDS011;5763;42.714;23.244;2023-04-24T11:46:34;4.45;;;3.38;;
11414;SDS011;5763;42.714;23.244;2023-04-24T11:49:03;6.47;;;5.00;;
11414;SDS011;5763;42.714;23.244;2023-04-24T11:51:30;7.32;;;5.95;;
11414;SDS011;5763;42.714;23.244;2023-04-24T11:53:58;4.05;;;3.60;;
11414;SDS011;5763;42.714;23.244;2023-04-24T11:56:25;5.65;;;4.60;;
11414;SDS011;5763;42.714;23.244;2023-04-24T11:58:52;4.97;;;3.70;;
11414;SDS011;5763;42.714;23.244;2023-04-24T12:01:20;4.30;;;3.83;;
11414;SDS011;5763;42.714;23.244;2023-04-24T12:03:47;5.57;;;3.70;;
11414;SDS011;5763;42.714;23.244;2023-04-24T12:06:16;3.92;;;3.40;;
11414;SDS011;5763;42.714;23.244;2023-04-24T12:08:45;3.97;;;3.35;;
11414;SDS011;5763;42.714;23.244;2023-04-24T12:11:14;6.72;;;3.95;;
11414;SDS011;5763;42.714;23.244;2023-04-24T12:13:42;3.85;;;3.40;;
11414;SDS011;5763;42.714;23.244;2023-04-24T12:16:09;4.18;;;3.75;;
11414;SDS011;5763;42.714;23.244;2023-04-24T12:18:40;4.05;;;3.67;;
11414;SDS011;5763;42.714;23.244;2023-04-24T12:21:14;4.88;;;3.75;;
11414;SDS011;5763;42.714;23.244;2023-04-24T12:23:42;4.22;;;3.75;;
11414;SDS011;5763;42.714;23.244;2023-04-24T12:26:09;6.30;;;4.13;;
11414;SDS011;5763;42.714;23.244;2023-04-24T12:28:38;4.22;;;3.83;;
11414;SDS011;5763;42.714;23.244;2023-04-24T12:31:06;4.68;;;3.97;;
11414;SDS011;5763;42.714;23.244;2023-04-24T12:33:33;5.15;;;4.07;;
11414;SDS011;5763;42.714;23.244;2023-04-24T12:36:01;3.75;;;3.42;;
11414;SDS011;5763;42.714;23.244;2023-04-24T12:38:29;5.13;;;3.20;;
11414;SDS011;5763;42.714;23.244;2023-04-24T12:41:02;3.50;;;3.20;;
11414;SDS011;5763;42.714;23.244;2023-04-24T12:43:30;4.35;;;3.80;;
11414;SDS011;5763;42.714;23.244;2023-04-24T12:45:59;4.32;;;3.60;;
11414;SDS011;5763;42.714;23.244;2023-04-24T12:48:26;3.60;;;3.30;;
11414;SDS011;5763;42.714;23.244;2023-04-24T12:50:53;3.80;;;3.40;;
11414;SDS011;5763;42.714;23.244;2023-04-24T12:53:20;4.22;;;3.35;;
11414;SDS011;5763;42.714;23.244;2023-04-24T12:55:47;6.22;;;3.90;;
11414;SDS011;5763;42.714;23.244;2023-04-24T12:58:18;3.72;;;3.35;;
11414;SDS011;5763;42.714;23.244;2023-04-24T13:00:45;4.20;;;3.80;;
11414;SDS011;5763;42.714;23.244;2023-04-24T13:03:13;3.47;;;3.15;;
11414;SDS011;5763;42.714;23.244;2023-04-24T13:05:42;4.43;;;3.72;;
11414;SDS011;5763;42.714;23.244;2023-04-24T13:08:09;6.35;;;3.20;;
11414;SDS011;5763;42.714;23.244;2023-04-24T13:10:37;3.53;;;2.85;;
11414;SDS011;5763;42.714;23.244;2023-04-24T13:13:05;3.47;;;3.03;;
11414;SDS011;5763;42.714;23.244;2023-04-24T13:15:32;6.13;;;2.92;;
11414;SDS011;5763;42.714;23.244;2023-04-24T13:17:59;6.22;;;3.70;;
11414;SDS011;5763;42.714;23.244;2023-04-24T13:20:27;4.65;;;2.85;;
11414;SDS011;5763;42.714;23.244;2023-04-24T13:22:54;3.40;;;3.00;;
11414;SDS011;5763;42.714;23.244;2023-04-24T13:25:20;4.38;;;3.10;;
11414;SDS011;5763;42.714;23.244;2023-04-24T13:27:48;4.90;;;3.08;;
11414;SDS011;5763;42.714;23.244;2023-04-24T13:30:15;3.90;;;2.67;;
11414;SDS011;5763;42.714;23.244;2023-04-24T13:32:42;3.50;;;2.97;;
11414;SDS011;5763;42.714;23.244;2023-04-24T13:35:09;4.13;;;3.20;;
11414;SDS011;5763;42.714;23.244;2023-04-24T13:37:38;4.03;;;3.20;;
11414;SDS011;5763;42.714;23.244;2023-04-24T13:40:05;4.57;;;3.00;;
11414;SDS011;5763;42.714;23.244;2023-04-24T13:42:33;4.45;;;3.00;;
11414;SDS011;5763;42.714;23.244;2023-04-24T13:44:59;3.25;;;3.00;;
11414;SDS011;5763;42.714;23.244;2023-04-24T13:47:26;5.45;;;2.97;;
11414;SDS011;5763;42.714;23.244;2023-04-24T13:49:53;3.15;;;2.88;;
11414;SDS011;5763;42.714;23.244;2023-04-24T13:52:20;3.60;;;3.20;;
11414;SDS011;5763;42.714;23.244;2023-04-24T13:54:48;3.63;;;2.85;;
11414;SDS011;5763;42.714;23.244;2023-04-24T13:57:15;4.28;;;3.00;;
11414;SDS011;5763;42.714;23.244;2023-04-24T13:59:42;3.22;;;2.80;;
11414;SDS011;5763;42.714;23.244;2023-04-24T14:02:10;3.22;;;2.92;;
11414;SDS011;5763;42.714;23.244;2023-04-24T14:04:37;2.78;;;2.58;;
11414;SDS011;5763;42.714;23.244;2023-04-24T14:07:03;6.97;;;2.83;;
11414;SDS011;5763;42.714;23.244;2023-04-24T14:09:30;2.92;;;2.72;;
11414;SDS011;5763;42.714;23.244;2023-04-24T14:11:58;3.10;;;2.80;;
11414;SDS011;5763;42.714;23.244;2023-04-24T14:14:26;3.05;;;2.75;;
11414;SDS011;5763;42.714;23.244;2023-04-24T14:16:55;3.35;;;2.63;;
11414;SDS011;5763;42.714;23.244;2023-04-24T14:19:21;4.63;;;2.97;;
11414;SDS011;5763;42.714;23.244;2023-04-24T14:21:48;3.47;;;3.00;;
11414;SDS011;5763;42.714;23.244;2023-04-24T14:24:16;4.32;;;2.90;;
11414;SDS011;5763;42.714;23.244;2023-04-24T14:26:43;3.10;;;2.70;;
11414;SDS011;5763;42.714;23.244;2023-04-24T14:29:11;4.15;;;2.90;;
11414;SDS011;5763;42.714;23.244;2023-04-24T14:31:37;3.83;;;2.70;;
11414;SDS011;5763;42.714;23.244;2023-04-24T14:34:04;3.38;;;2.92;;
11414;SDS011;5763;42.714;23.244;2023-04-24T14:36:31;4.15;;;3.03;;
11414;SDS011;5763;42.714;23.244;2023-04-24T14:38:58;3.08;;;2.85;;
11414;SDS011;5763;42.714;23.244;2023-04-24T14:41:25;4.53;;;2.78;;
11414;SDS011;5763;42.714;23.244;2023-04-24T14:43:51;4.43;;;2.90;;
11414;SDS011;5763;42.714;23.244;2023-04-24T14:46:19;5.43;;;3.60;;
11414;SDS011;5763;42.714;23.244;2023-04-24T14:48:46;3.58;;;2.90;;
11414;SDS011;5763;42.714;23.244;2023-04-24T14:51:13;4.78;;;3.30;;